createdAt,value
2023-01-01T00:00:34.882Z,43.33
2023-01-01T00:01:40.569Z,43.35
2023-01-01T00:02:42.936Z,42.97
2023-01-01T00:03:49.956Z,43.11
2023-01-01T00:04:52.244Z,42.94
2023-01-01T00:05:54.386Z,43.30
2023-01-01T00:06:56.559Z,43.27
2023-01-01T00:08:04.227Z,42.98
2023-01-01T00:09:26.116Z,43.04
2023-01-01T00:10:28.277Z,43.05
2023-01-01T00:11:30.491Z,43.09
2023-01-01T00:12:34.729Z,43.01
2023-01-01T00:13:39.258Z,43.06
2023-01-01T00:14:44.381Z,42.90
2023-01-01T00:15:46.631Z,42.85
2023-01-01T00:16:48.935Z,42.83
2023-01-01T00:17:51.143Z,42.97
2023-01-01T00:18:53.341Z,42.76
2023-01-01T00:19:55.576Z,42.67
2023-01-01T00:21:13.469Z,43.05
2023-01-01T00:22:52.577Z,43.00
2023-01-01T00:23:38.456Z,42.91
2023-01-01T00:24:40.649Z,42.71
2023-01-01T00:25:44.616Z,42.86
2023-01-01T00:26:46.869Z,42.80
2023-01-01T00:27:49.137Z,42.80
2023-01-01T00:28:51.393Z,42.74
2023-01-01T00:29:53.556Z,42.71
2023-01-01T00:30:55.708Z,42.92
2023-01-01T00:31:57.958Z,42.75
2023-01-01T00:33:00.231Z,42.68
2023-01-01T00:34:02.488Z,42.79
2023-01-01T00:35:05.068Z,42.51
2023-01-01T00:36:17.545Z,42.81
2023-01-01T00:37:19.751Z,42.79
2023-01-01T00:38:22.010Z,42.44
2023-01-01T00:39:24.231Z,42.66
2023-01-01T00:40:26.498Z,42.46
2023-01-01T00:41:28.706Z,42.48
2023-01-01T00:42:30.911Z,42.43
2023-01-01T00:43:33.383Z,42.48
2023-01-01T00:44:35.564Z,42.60
2023-01-01T00:45:40.169Z,42.63
2023-01-01T00:46:42.400Z,42.39
2023-01-01T00:47:44.711Z,42.42
2023-01-01T00:48:46.931Z,42.31
2023-01-01T00:49:49.098Z,42.42
2023-01-01T00:50:52.819Z,42.38
2023-01-01T00:51:55.035Z,42.35
2023-01-01T00:52:59.527Z,42.14
2023-01-01T00:54:04.729Z,42.25
2023-01-01T00:55:07.381Z,42.31
2023-01-01T00:56:09.650Z,41.92
2023-01-01T00:57:11.862Z,41.88
2023-01-01T00:58:14.682Z,42.10
2023-01-01T00:59:16.983Z,41.89
2023-01-01T01:00:20.352Z,41.91
2023-01-01T01:01:22.623Z,41.77
2023-01-01T01:02:24.996Z,42.14
2023-01-01T01:03:30.739Z,42.08
2023-01-01T01:04:35.914Z,42.11
2023-01-01T01:05:38.694Z,41.71
2023-01-01T01:06:40.919Z,41.79
2023-01-01T01:07:43.163Z,41.92
2023-01-01T01:08:46.938Z,41.92
2023-01-01T01:09:50.250Z,41.93
2023-01-01T01:10:53.428Z,41.55
2023-01-01T01:12:17.317Z,41.75
2023-01-01T01:13:17.896Z,41.72
2023-01-01T01:14:20.093Z,41.51
2023-01-01T01:15:22.458Z,41.63
2023-01-01T01:16:34.798Z,41.43
2023-01-01T01:17:37.182Z,41.33
2023-01-01T01:18:39.669Z,41.33
2023-01-01T01:19:42.293Z,41.62
2023-01-01T01:20:50.891Z,41.24
2023-01-01T01:21:53.127Z,41.54
2023-01-01T01:22:55.368Z,41.24
2023-01-01T01:23:59.215Z,41.18
2023-01-01T01:25:02.245Z,41.17
2023-01-01T01:26:22.009Z,41.57
2023-01-01T01:27:24.436Z,41.32
2023-01-01T01:28:27.381Z,41.01
2023-01-01T01:29:29.529Z,41.15
2023-01-01T01:30:31.756Z,41.15
2023-01-01T01:31:37.326Z,41.58
2023-01-01T01:32:39.505Z,41.22
2023-01-01T01:33:45.005Z,41.54
2023-01-01T01:34:47.527Z,41.47
2023-01-01T01:35:52.739Z,41.42
2023-01-01T01:36:55.379Z,41.27
2023-01-01T01:37:57.693Z,41.33
2023-01-01T01:38:59.872Z,41.52
2023-01-01T01:40:02.224Z,41.59
2023-01-01T01:41:04.829Z,41.52
2023-01-01T01:42:07.295Z,41.54
2023-01-01T01:43:22.884Z,41.56
2023-01-01T01:44:43.751Z,41.73
2023-01-01T01:45:46.005Z,41.59
2023-01-01T01:46:48.188Z,41.56
2023-01-01T01:47:55.789Z,41.59
2023-01-01T01:49:04.158Z,41.56
2023-01-01T01:50:20.977Z,41.54
2023-01-01T01:51:33.191Z,41.35
2023-01-01T01:52:38.746Z,41.58
2023-01-01T01:53:46.371Z,41.33
2023-01-01T01:54:49.241Z,41.75
2023-01-01T01:55:58.057Z,41.32
2023-01-01T01:57:05.135Z,41.39
2023-01-01T01:58:11.179Z,41.29
2023-01-01T01:59:14.543Z,41.23
2023-01-01T02:00:17.082Z,41.31
2023-01-01T02:01:19.331Z,41.40
2023-01-01T02:02:34.492Z,41.52
2023-01-01T02:03:50.297Z,41.49
2023-01-01T02:04:52.741Z,41.57
2023-01-01T02:05:54.986Z,41.62
2023-01-01T02:06:57.269Z,41.73
2023-01-01T02:08:00.544Z,41.57
2023-01-01T02:09:08.880Z,41.46
2023-01-01T02:10:11.048Z,41.48
2023-01-01T02:11:17.403Z,41.54
2023-01-01T02:12:22.374Z,41.60
2023-01-01T02:13:24.589Z,41.64
2023-01-01T02:14:26.909Z,41.33
2023-01-01T02:15:34.984Z,41.60
2023-01-01T02:16:46.620Z,41.46
2023-01-01T02:17:59.965Z,41.52
2023-01-01T02:19:18.550Z,41.77
2023-01-01T02:21:05.816Z,41.73
2023-01-01T02:22:33.120Z,41.63
2023-01-01T02:23:55.223Z,41.71
2023-01-01T02:25:23.367Z,41.67
2023-01-01T02:26:48.866Z,41.63
2023-01-01T02:27:57.603Z,41.57
2023-01-01T02:29:10.339Z,41.69
2023-01-01T02:30:13.182Z,41.45
2023-01-01T02:31:23.792Z,41.67
2023-01-01T02:32:41.830Z,41.42
2023-01-01T02:33:45.688Z,41.81
2023-01-01T02:34:58.142Z,41.51
2023-01-01T02:36:04.308Z,41.57
2023-01-01T02:37:10.178Z,41.65
2023-01-01T02:38:32.318Z,41.84
2023-01-01T02:39:39.635Z,41.47
2023-01-01T02:40:51.175Z,41.56
2023-01-01T02:41:56.454Z,41.61
2023-01-01T02:42:59.791Z,41.88
2023-01-01T02:45:15.367Z,41.71
2023-01-01T02:47:22.197Z,41.39
2023-01-01T02:48:47.462Z,41.55
2023-01-01T02:50:19.032Z,41.94
2023-01-01T02:51:43.751Z,41.69
2023-01-01T02:53:28.159Z,41.90
2023-01-01T02:54:55.005Z,41.49
2023-01-01T02:56:08.709Z,41.73
2023-01-01T02:57:31.352Z,41.61
2023-01-01T02:58:59.648Z,41.61
2023-01-01T03:00:27.977Z,41.42
2023-01-01T03:01:50.893Z,41.82
2023-01-01T03:03:25.892Z,41.78
2023-01-01T03:05:05.138Z,41.71
2023-01-01T03:06:29.772Z,41.83
2023-01-01T03:08:16.051Z,41.73
2023-01-01T03:09:31.290Z,41.73
2023-01-01T03:10:36.766Z,41.48
2023-01-01T03:12:18.409Z,41.35
2023-01-01T03:13:49.196Z,41.37
2023-01-01T03:15:01.515Z,41.48
2023-01-01T03:16:10.759Z,41.26
2023-01-01T03:17:29.577Z,41.37
2023-01-01T03:19:10.606Z,41.29
2023-01-01T03:20:19.438Z,41.17
2023-01-01T03:21:22.439Z,41.34
2023-01-01T03:22:35.211Z,41.07
2023-01-01T03:23:49.527Z,41.24
2023-01-01T03:24:56.872Z,41.08
2023-01-01T03:26:05.714Z,40.85
2023-01-01T03:27:13.667Z,41.15
2023-01-01T03:28:25.500Z,41.16
2023-01-01T03:29:32.458Z,41.08
2023-01-01T03:30:37.868Z,41.25
2023-01-01T03:31:45.220Z,41.09
2023-01-01T03:33:00.557Z,41.03
2023-01-01T03:34:07.514Z,40.99
2023-01-01T03:35:12.320Z,41.23
2023-01-01T03:36:34.212Z,41.19
2023-01-01T03:37:36.652Z,40.94
2023-01-01T03:38:43.047Z,41.29
2023-01-01T03:39:51.327Z,41.18
2023-01-01T03:41:01.973Z,41.09
2023-01-01T03:42:17.690Z,41.37
2023-01-01T03:43:44.757Z,41.25
2023-01-01T03:44:58.372Z,41.07
2023-01-01T03:46:01.729Z,41.23
2023-01-01T03:47:06.622Z,41.31
2023-01-01T03:48:09.950Z,41.11
2023-01-01T03:49:16.867Z,41.02
2023-01-01T03:50:22.883Z,41.21
2023-01-01T03:51:36.498Z,41.49
2023-01-01T03:53:06.672Z,41.54
2023-01-01T03:54:21.169Z,41.41
2023-01-01T03:55:43.089Z,41.21
2023-01-01T03:56:54.785Z,41.60
2023-01-01T03:58:03.927Z,41.62
2023-01-01T03:59:09.815Z,41.51
2023-01-01T04:00:19.098Z,41.66
2023-01-01T04:01:27.859Z,41.54
2023-01-01T04:02:40.878Z,41.23
2023-01-01T04:03:43.539Z,41.40
2023-01-01T04:04:49.160Z,41.66
2023-01-01T04:05:51.711Z,41.78
2023-01-01T04:06:55.624Z,41.17
2023-01-01T04:08:02.150Z,41.22
2023-01-01T04:09:08.520Z,41.35
2023-01-01T04:10:19.709Z,41.54
2023-01-01T04:11:44.404Z,41.54
2023-01-01T04:12:53.844Z,41.40
2023-01-01T04:13:56.293Z,41.21
2023-01-01T04:14:58.466Z,41.41
2023-01-01T04:16:00.699Z,41.48
2023-01-01T04:17:05.245Z,41.47
2023-01-01T04:18:07.493Z,41.45
2023-01-01T04:19:09.660Z,41.35
2023-01-01T04:20:12.463Z,41.39
2023-01-01T04:21:14.630Z,41.71
2023-01-01T04:22:18.561Z,41.67
2023-01-01T04:23:20.713Z,41.79
2023-01-01T04:24:24.242Z,41.52
2023-01-01T04:25:27.428Z,41.55
2023-01-01T04:26:29.577Z,41.70
2023-01-01T04:27:31.786Z,41.77
2023-01-01T04:28:33.954Z,41.41
2023-01-01T04:29:36.434Z,41.78
2023-01-01T04:31:39.576Z,41.66
2023-01-01T04:32:42.809Z,41.67
2023-01-01T04:33:45.043Z,41.66
2023-01-01T04:34:47.222Z,41.50
2023-01-01T04:35:49.373Z,41.52
2023-01-01T04:36:52.103Z,41.51
2023-01-01T04:37:54.472Z,41.84
2023-01-01T04:38:56.640Z,41.92
2023-01-01T04:40:01.990Z,41.69
2023-01-01T04:41:05.725Z,41.75
2023-01-01T04:42:08.024Z,41.90
2023-01-01T04:43:10.235Z,41.76
2023-01-01T04:44:12.405Z,41.76
2023-01-01T04:45:15.497Z,41.82
2023-01-01T04:46:19.639Z,41.89
2023-01-01T04:47:22.349Z,41.79
2023-01-01T04:48:25.301Z,41.94
2023-01-01T04:49:27.758Z,41.87
2023-01-01T04:50:30.519Z,41.82
2023-01-01T04:51:32.659Z,41.83
2023-01-01T04:52:34.867Z,41.79
2023-01-01T04:53:37.070Z,41.85
2023-01-01T04:54:39.523Z,41.87
2023-01-01T04:55:41.758Z,41.66
2023-01-01T04:56:43.955Z,41.84
2023-01-01T04:57:48.424Z,41.91
2023-01-01T04:58:50.758Z,41.81
2023-01-01T04:59:53.092Z,41.85
2023-01-01T05:00:55.345Z,42.03
2023-01-01T05:01:58.617Z,41.76
2023-01-01T05:03:00.948Z,42.06
2023-01-01T05:04:03.267Z,41.72
2023-01-01T05:05:05.626Z,42.03
2023-01-01T05:06:11.800Z,41.89
2023-01-01T05:07:13.979Z,42.11
2023-01-01T05:08:16.141Z,42.14
2023-01-01T05:09:18.564Z,41.91
2023-01-01T05:10:20.727Z,42.00
2023-01-01T05:11:27.615Z,41.82
2023-01-01T05:12:30.033Z,41.91
2023-01-01T05:13:34.427Z,42.04
2023-01-01T05:14:36.577Z,41.96
2023-01-01T05:15:38.768Z,42.15
2023-01-01T05:16:41.420Z,42.11
2023-01-01T05:17:43.735Z,42.05
2023-01-01T05:18:47.629Z,42.13
2023-01-01T05:19:49.842Z,42.04
2023-01-01T05:20:52.214Z,41.80
2023-01-01T05:21:54.460Z,41.84
2023-01-01T05:22:56.674Z,41.89
2023-01-01T05:24:04.473Z,41.79
2023-01-01T05:25:07.221Z,41.74
2023-01-01T05:26:13.509Z,41.88
2023-01-01T05:27:15.699Z,41.94
2023-01-01T05:28:17.897Z,42.21
2023-01-01T05:29:20.119Z,42.12
2023-01-01T05:30:22.320Z,41.84
2023-01-01T05:31:29.115Z,42.08
2023-01-01T05:32:31.298Z,41.98
2023-01-01T05:33:35.374Z,42.07
2023-01-01T05:35:38.721Z,42.03
2023-01-01T05:36:41.141Z,42.06
2023-01-01T05:37:43.301Z,42.29
2023-01-01T05:38:45.671Z,41.97
2023-01-01T05:39:49.570Z,42.17
2023-01-01T05:40:51.839Z,42.11
2023-01-01T05:41:54.092Z,42.09
2023-01-01T05:42:56.451Z,41.79
2023-01-01T05:43:58.672Z,41.98
2023-01-01T05:45:00.999Z,41.84
2023-01-01T05:46:05.659Z,41.89
2023-01-01T05:47:07.932Z,41.76
2023-01-01T05:48:11.603Z,41.72
2023-01-01T05:49:13.916Z,41.70
2023-01-01T05:50:16.260Z,41.76
2023-01-01T05:51:21.160Z,41.71
2023-01-01T05:52:26.773Z,41.95
2023-01-01T05:53:33.498Z,41.60
2023-01-01T05:54:35.669Z,42.02
2023-01-01T05:55:37.875Z,42.05
2023-01-01T05:56:40.145Z,41.85
2023-01-01T05:57:42.432Z,41.79
2023-01-01T05:58:45.264Z,41.99
2023-01-01T05:59:47.445Z,42.04
2023-01-01T06:00:49.613Z,41.72
2023-01-01T06:01:51.888Z,42.13
2023-01-01T06:02:55.229Z,42.24
2023-01-01T06:03:59.860Z,41.98
2023-01-01T06:05:02.321Z,41.76
2023-01-01T06:06:06.399Z,41.89
2023-01-01T06:07:08.606Z,41.70
2023-01-01T06:08:11.265Z,41.92
2023-01-01T06:09:13.431Z,41.81
2023-01-01T06:10:15.724Z,41.98
2023-01-01T06:11:18.606Z,41.94
2023-01-01T06:12:21.070Z,41.75
2023-01-01T06:13:23.208Z,41.73
2023-01-01T06:14:25.393Z,41.71
2023-01-01T06:15:30.194Z,41.94
2023-01-01T06:16:33.106Z,42.01
2023-01-01T06:17:35.641Z,41.99
2023-01-01T06:18:38.345Z,41.95
2023-01-01T06:19:40.542Z,41.89
2023-01-01T06:20:43.710Z,41.88
2023-01-01T06:21:45.917Z,41.89
2023-01-01T06:22:48.082Z,41.76
2023-01-01T06:23:51.961Z,41.86
2023-01-01T06:24:56.394Z,42.18
2023-01-01T06:26:05.321Z,41.77
2023-01-01T06:27:07.662Z,42.04
2023-01-01T06:28:11.255Z,41.88
2023-01-01T06:29:13.427Z,41.98
2023-01-01T06:30:15.618Z,42.19
2023-01-01T06:31:20.961Z,41.81
2023-01-01T06:32:23.462Z,41.90
2023-01-01T06:33:25.698Z,42.09
2023-01-01T06:34:27.844Z,41.89
2023-01-01T06:35:30.352Z,42.17
2023-01-01T06:36:32.620Z,42.09
2023-01-01T06:37:37.030Z,41.94
2023-01-01T06:38:42.662Z,42.09
2023-01-01T06:39:45.910Z,42.08
2023-01-01T06:40:58.980Z,41.90
2023-01-01T06:42:01.145Z,41.97
2023-01-01T06:43:03.349Z,42.17
2023-01-01T06:44:05.762Z,41.96
2023-01-01T06:45:08.792Z,42.03
2023-01-01T06:46:22.404Z,42.02
2023-01-01T06:47:24.646Z,42.12
2023-01-01T06:48:28.785Z,42.27
2023-01-01T06:49:30.994Z,42.20
2023-01-01T06:50:33.187Z,42.28
2023-01-01T06:51:39.351Z,42.02
2023-01-01T06:52:41.527Z,42.23
2023-01-01T06:53:43.783Z,42.08
2023-01-01T06:54:45.963Z,42.18
2023-01-01T06:55:53.403Z,42.21
2023-01-01T06:56:59.194Z,42.25
2023-01-01T06:58:01.375Z,42.41
2023-01-01T06:59:04.553Z,42.15
2023-01-01T07:00:07.480Z,42.44
2023-01-01T07:01:12.175Z,42.34
2023-01-01T07:02:14.587Z,42.42
2023-01-01T07:03:16.938Z,42.36
2023-01-01T07:04:19.187Z,42.24
2023-01-01T07:05:21.328Z,42.61
2023-01-01T07:06:24.394Z,42.30
2023-01-01T07:07:31.137Z,42.47
2023-01-01T07:08:36.746Z,42.50
2023-01-01T07:09:38.934Z,42.45
2023-01-01T07:10:41.103Z,42.37
2023-01-01T07:11:43.316Z,42.30
2023-01-01T07:12:45.492Z,42.48
2023-01-01T07:13:47.725Z,42.52
2023-01-01T07:14:49.909Z,42.74
2023-01-01T07:15:53.070Z,42.47
2023-01-01T07:16:55.335Z,42.46
2023-01-01T07:17:57.471Z,42.87
2023-01-01T07:19:01.347Z,42.71
2023-01-01T07:20:03.759Z,42.52
2023-01-01T07:21:08.039Z,42.62
2023-01-01T07:22:11.035Z,42.81
2023-01-01T07:23:13.292Z,42.67
2023-01-01T07:24:16.453Z,43.07
2023-01-01T07:25:18.710Z,42.90
2023-01-01T07:26:20.937Z,42.82
2023-01-01T07:27:23.206Z,43.22
2023-01-01T07:28:26.266Z,42.90
2023-01-01T07:29:28.438Z,43.18
2023-01-01T07:30:30.663Z,43.06
2023-01-01T07:31:32.965Z,43.28
2023-01-01T07:32:35.273Z,43.11
2023-01-01T07:33:37.418Z,43.04
2023-01-01T07:34:39.549Z,43.22
2023-01-01T07:35:41.880Z,43.20
2023-01-01T07:36:44.041Z,43.02
2023-01-01T07:37:46.252Z,42.98
2023-01-01T07:38:48.414Z,43.13
2023-01-01T07:39:50.707Z,43.40
2023-01-01T07:40:53.230Z,43.39
2023-01-01T07:41:55.432Z,43.47
2023-01-01T07:42:57.843Z,43.21
2023-01-01T07:44:00.311Z,43.23
2023-01-01T07:45:02.865Z,43.42
2023-01-01T07:46:05.316Z,43.27
2023-01-01T07:47:24.482Z,43.46
2023-01-01T07:48:27.030Z,43.52
2023-01-01T07:49:29.167Z,43.56
2023-01-01T07:50:32.973Z,43.35
2023-01-01T07:51:35.168Z,43.40
2023-01-01T07:52:37.319Z,43.75
2023-01-01T07:53:39.486Z,43.48
2023-01-01T07:54:41.692Z,43.27
2023-01-01T07:55:45.798Z,43.50
2023-01-01T07:56:47.963Z,43.37
2023-01-01T07:57:50.114Z,43.51
2023-01-01T07:58:52.339Z,43.20
2023-01-01T07:59:54.547Z,43.30
2023-01-01T08:00:56.716Z,43.74
2023-01-01T08:01:58.994Z,43.63
2023-01-01T08:03:01.436Z,43.67
2023-01-01T08:04:06.634Z,43.58
2023-01-01T08:05:09.086Z,43.38
2023-01-01T08:06:13.444Z,43.52
2023-01-01T08:07:15.634Z,43.45
2023-01-01T08:08:17.763Z,43.44
2023-01-01T08:09:19.945Z,43.65
2023-01-01T08:10:22.299Z,43.49
2023-01-01T08:11:24.459Z,43.26
2023-01-01T08:12:26.727Z,43.59
2023-01-01T08:13:28.887Z,43.37
2023-01-01T08:14:31.066Z,43.28
2023-01-01T08:15:33.655Z,43.53
2023-01-01T08:16:35.919Z,43.16
2023-01-01T08:17:44.272Z,43.46
2023-01-01T08:18:48.809Z,43.31
2023-01-01T08:19:52.221Z,42.97
2023-01-01T08:20:54.474Z,43.08
2023-01-01T08:21:56.720Z,43.33
2023-01-01T08:23:04.580Z,43.22
2023-01-01T08:24:09.198Z,43.49
2023-01-01T08:25:11.425Z,43.51
2023-01-01T08:26:17.936Z,43.18
2023-01-01T08:27:20.083Z,42.95
2023-01-01T08:28:22.267Z,43.44
2023-01-01T08:29:24.428Z,43.04
2023-01-01T08:30:26.724Z,43.34
2023-01-01T08:31:28.906Z,42.95
2023-01-01T08:32:31.074Z,43.27
2023-01-01T08:33:33.224Z,43.14
2023-01-01T08:34:35.399Z,43.18
2023-01-01T08:35:41.732Z,43.08
2023-01-01T08:36:43.886Z,43.09
2023-01-01T08:37:46.092Z,43.04
2023-01-01T08:38:48.205Z,43.11
2023-01-01T08:39:52.405Z,42.73
2023-01-01T08:40:54.842Z,42.96
2023-01-01T08:41:57.010Z,42.74
2023-01-01T08:42:59.144Z,42.74
2023-01-01T08:44:01.446Z,42.73
2023-01-01T08:45:03.869Z,42.57
2023-01-01T08:46:06.103Z,42.64
2023-01-01T08:47:17.536Z,42.55
2023-01-01T08:48:20.277Z,42.82
2023-01-01T08:49:24.379Z,42.35
2023-01-01T08:50:26.708Z,42.40
2023-01-01T08:51:28.936Z,42.26
2023-01-01T08:52:31.563Z,42.20
2023-01-01T08:53:33.724Z,42.46
2023-01-01T08:54:35.979Z,42.37
2023-01-01T08:55:38.136Z,42.38
2023-01-01T08:56:40.313Z,42.36
2023-01-01T08:57:42.544Z,42.27
2023-01-01T08:58:44.769Z,42.41
2023-01-01T08:59:46.972Z,42.03
2023-01-01T09:00:49.117Z,42.18
2023-01-01T09:01:51.364Z,42.19
2023-01-01T09:02:53.767Z,42.17
2023-01-01T09:03:55.972Z,42.30
2023-01-01T09:04:58.151Z,42.42
2023-01-01T09:06:00.333Z,41.99
2023-01-01T09:07:02.593Z,42.02
2023-01-01T09:08:04.799Z,41.98
2023-01-01T09:09:06.965Z,41.75
2023-01-01T09:10:09.459Z,41.92
2023-01-01T09:11:22.105Z,41.95
2023-01-01T09:12:27.072Z,41.58
2023-01-01T09:13:30.798Z,42.02
2023-01-01T09:14:34.147Z,41.88
2023-01-01T09:15:36.672Z,41.70
2023-01-01T09:16:44.187Z,41.96
2023-01-01T09:17:46.696Z,41.98
2023-01-01T09:18:48.988Z,41.77
2023-01-01T09:19:51.198Z,41.50
2023-01-01T09:20:53.521Z,41.79
2023-01-01T09:21:55.677Z,41.74
2023-01-01T09:23:04.000Z,41.65
2023-01-01T09:24:08.874Z,41.63
2023-01-01T09:25:11.053Z,41.52
2023-01-01T09:26:13.278Z,41.84
2023-01-01T09:27:15.444Z,41.57
2023-01-01T09:28:23.418Z,41.61
2023-01-01T09:29:28.276Z,41.84
2023-01-01T09:30:30.700Z,41.58
2023-01-01T09:31:34.058Z,41.64
2023-01-01T09:32:36.544Z,41.63
2023-01-01T09:33:39.929Z,41.57
2023-01-01T09:34:46.044Z,41.93
2023-01-01T09:35:51.085Z,41.69
2023-01-01T09:36:53.239Z,42.03
2023-01-01T09:37:55.794Z,41.72
2023-01-01T09:38:59.418Z,41.84
2023-01-01T09:40:01.729Z,41.84
2023-01-01T09:41:27.012Z,41.71
2023-01-01T09:42:50.599Z,41.61
2023-01-01T09:44:01.770Z,41.52
2023-01-01T09:45:28.010Z,41.92
2023-01-01T09:46:32.095Z,41.72
2023-01-01T09:47:41.111Z,41.60
2023-01-01T09:48:56.678Z,41.42
2023-01-01T09:50:07.492Z,41.49
2023-01-01T09:51:16.890Z,41.50
2023-01-01T09:52:21.164Z,41.52
2023-01-01T09:53:41.358Z,41.53
2023-01-01T09:54:51.615Z,41.64
2023-01-01T09:55:58.709Z,41.52
2023-01-01T09:57:04.075Z,41.87
2023-01-01T09:58:10.204Z,41.50
2023-01-01T09:59:12.536Z,41.82
2023-01-01T10:00:18.468Z,41.51
2023-01-01T10:01:39.192Z,41.73
2023-01-01T10:03:23.365Z,41.58
2023-01-01T10:04:28.539Z,41.33
2023-01-01T10:05:40.024Z,41.19
2023-01-01T10:07:01.803Z,41.19
2023-01-01T10:08:44.387Z,41.43
2023-01-01T10:10:16.173Z,41.25
2023-01-01T10:11:29.704Z,41.31
2023-01-01T10:12:56.532Z,41.32
2023-01-01T10:14:01.755Z,41.34
2023-01-01T10:15:17.358Z,40.98
2023-01-01T10:16:41.707Z,41.14
2023-01-01T10:17:50.959Z,40.84
2023-01-01T10:18:56.727Z,41.01
2023-01-01T10:20:03.100Z,40.68
2023-01-01T10:21:17.570Z,40.93
2023-01-01T10:22:36.506Z,40.72
2023-01-01T10:23:58.935Z,40.88
2023-01-01T10:25:11.570Z,40.73
2023-01-01T10:26:18.350Z,40.65
2023-01-01T10:27:39.834Z,40.54
2023-01-01T10:29:05.745Z,40.39
2023-01-01T10:30:17.828Z,40.12
2023-01-01T10:31:30.495Z,40.10
2023-01-01T10:32:35.645Z,40.06
2023-01-01T10:33:37.810Z,40.33
2023-01-01T10:34:39.965Z,40.09
2023-01-01T10:35:46.194Z,40.12
2023-01-01T10:36:52.116Z,40.07
2023-01-01T10:37:54.319Z,40.15
2023-01-01T10:38:56.465Z,40.05
2023-01-01T10:39:58.807Z,40.11
2023-01-01T10:41:10.910Z,40.17
2023-01-01T10:42:18.025Z,39.85
2023-01-01T10:43:20.175Z,39.87
2023-01-01T10:44:29.613Z,40.22
2023-01-01T10:45:35.453Z,39.83
2023-01-01T10:46:45.097Z,39.93
2023-01-01T10:48:17.910Z,40.32
2023-01-01T10:49:20.109Z,40.19
2023-01-01T10:50:22.338Z,40.13
2023-01-01T10:51:26.864Z,39.84
2023-01-01T10:52:40.676Z,40.18
2023-01-01T10:53:50.589Z,39.80
2023-01-01T10:54:53.043Z,39.93
2023-01-01T10:56:12.281Z,40.22
2023-01-01T10:57:29.708Z,39.84
2023-01-01T10:58:48.902Z,39.91
2023-01-01T10:59:54.416Z,39.71
2023-01-01T11:01:02.095Z,39.82
2023-01-01T11:02:28.341Z,40.07
2023-01-01T11:03:31.209Z,40.02
2023-01-01T11:04:34.864Z,40.12
2023-01-01T11:05:37.194Z,40.03
2023-01-01T11:06:43.273Z,39.94
2023-01-01T11:07:46.264Z,40.08
2023-01-01T11:08:52.723Z,40.07
2023-01-01T11:10:04.510Z,39.95
2023-01-01T11:11:07.235Z,39.50
2023-01-01T11:12:54.742Z,39.46
2023-01-01T11:13:43.104Z,39.72
2023-01-01T11:14:53.298Z,39.56
2023-01-01T11:15:56.158Z,39.64
2023-01-01T11:16:59.091Z,39.69
2023-01-01T11:18:07.197Z,39.33
2023-01-01T11:19:25.200Z,39.50
2023-01-01T11:20:27.638Z,39.67
2023-01-01T11:21:30.019Z,39.37
2023-01-01T11:22:53.335Z,39.57
2023-01-01T11:24:20.664Z,39.95
2023-01-01T11:25:26.405Z,39.92
2023-01-01T11:26:28.643Z,40.00
2023-01-01T11:27:30.930Z,39.64
2023-01-01T11:28:35.656Z,39.52
2023-01-01T11:29:37.928Z,39.59
2023-01-01T11:30:40.311Z,39.27
2023-01-01T11:31:45.698Z,39.71
2023-01-01T11:32:55.244Z,39.39
2023-01-01T11:33:57.982Z,39.33
2023-01-01T11:35:06.490Z,39.80
2023-01-01T11:36:09.098Z,40.01
2023-01-01T11:37:14.283Z,39.87
2023-01-01T11:38:27.589Z,39.64
2023-01-01T11:39:37.441Z,39.54
2023-01-01T11:40:47.427Z,39.80
2023-01-01T11:41:52.723Z,39.39
2023-01-01T11:43:00.133Z,39.43
2023-01-01T11:44:02.377Z,39.42
2023-01-01T11:45:17.634Z,39.58
2023-01-01T11:46:24.915Z,39.49
2023-01-01T11:47:31.841Z,39.55
2023-01-01T11:48:35.094Z,39.29
2023-01-01T11:49:37.509Z,39.42
2023-01-01T11:50:53.664Z,39.57
2023-01-01T11:51:58.128Z,39.33
2023-01-01T11:53:22.841Z,39.55
2023-01-01T11:54:33.175Z,39.26
2023-01-01T11:55:43.413Z,39.25
2023-01-01T11:56:48.273Z,39.49
2023-01-01T11:58:19.335Z,39.06
2023-01-01T11:59:29.289Z,39.42
2023-01-01T12:00:35.848Z,39.38
2023-01-01T12:01:52.776Z,39.63
2023-01-01T12:03:04.363Z,39.54
2023-01-01T12:04:11.888Z,39.23
2023-01-01T12:05:22.691Z,39.12
2023-01-01T12:06:33.021Z,39.06
2023-01-01T12:07:38.534Z,38.83
2023-01-01T12:08:56.298Z,39.04
2023-01-01T12:10:03.591Z,39.03
2023-01-01T12:11:11.995Z,39.25
2023-01-01T12:12:41.680Z,39.16
2023-01-01T12:14:02.168Z,39.32
2023-01-01T12:15:20.421Z,39.16
2023-01-01T12:16:43.576Z,39.44
2023-01-01T12:18:16.541Z,39.27
2023-01-01T12:19:28.086Z,39.10
2023-01-01T12:20:38.256Z,39.19
2023-01-01T12:21:49.089Z,38.97
2023-01-01T12:22:56.748Z,39.09
2023-01-01T12:23:59.033Z,39.12
2023-01-01T12:25:02.907Z,38.77
2023-01-01T12:26:33.297Z,39.14
2023-01-01T12:27:59.459Z,39.35
2023-01-01T12:29:23.673Z,39.26
2023-01-01T12:31:01.627Z,38.92
2023-01-01T12:32:38.940Z,39.03
2023-01-01T12:34:11.959Z,39.23
2023-01-01T12:35:51.640Z,38.92
2023-01-01T12:37:05.624Z,38.83
2023-01-01T12:38:30.762Z,39.16
2023-01-01T12:40:17.178Z,39.28
2023-01-01T12:41:44.102Z,38.83
2023-01-01T12:43:01.569Z,39.07
2023-01-01T12:44:29.876Z,39.09
2023-01-01T12:46:03.420Z,38.99
2023-01-01T12:47:41.977Z,39.21
2023-01-01T12:48:47.066Z,38.86
2023-01-01T12:50:36.386Z,39.18
2023-01-01T12:51:53.325Z,39.06
2023-01-01T12:53:07.816Z,39.25
2023-01-01T12:54:44.788Z,39.33
2023-01-01T12:56:15.087Z,39.09
2023-01-01T12:57:40.144Z,39.41
2023-01-01T12:58:50.556Z,39.12
2023-01-01T12:59:54.894Z,39.30
2023-01-01T13:01:18.204Z,39.25
2023-01-01T13:02:24.374Z,39.28
2023-01-01T13:03:32.816Z,39.35
2023-01-01T13:04:36.803Z,39.41
2023-01-01T13:05:43.204Z,39.53
2023-01-01T13:07:09.105Z,39.58
2023-01-01T13:08:11.796Z,39.36
2023-01-01T13:09:22.919Z,39.17
2023-01-01T13:10:36.508Z,39.44
2023-01-01T13:11:44.981Z,39.44
2023-01-01T13:12:47.969Z,39.44
2023-01-01T13:13:50.274Z,39.60
2023-01-01T13:14:52.526Z,39.62
2023-01-01T13:15:56.913Z,39.29
2023-01-01T13:17:00.492Z,39.32
2023-01-01T13:18:08.491Z,39.42
2023-01-01T13:19:38.927Z,39.67
2023-01-01T13:20:57.272Z,39.23
2023-01-01T13:22:20.872Z,39.55
2023-01-01T13:23:29.124Z,39.32
2023-01-01T13:24:31.272Z,39.58
2023-01-01T13:25:33.508Z,39.39
2023-01-01T13:26:36.700Z,39.38
2023-01-01T13:28:00.730Z,39.42
2023-01-01T13:29:05.476Z,39.67
2023-01-01T13:30:53.789Z,39.69
2023-01-01T13:32:04.928Z,39.29
2023-01-01T13:33:26.118Z,39.61
2023-01-01T13:34:43.105Z,39.66
2023-01-01T13:35:45.280Z,39.65
2023-01-01T13:36:47.475Z,39.62
2023-01-01T13:37:49.710Z,39.45
2023-01-01T13:39:01.810Z,39.46
2023-01-01T13:40:25.239Z,39.47
2023-01-01T13:41:38.273Z,39.49
2023-01-01T13:42:42.447Z,39.78
2023-01-01T13:43:44.616Z,39.86
2023-01-01T13:44:46.797Z,39.77
2023-01-01T13:46:13.553Z,39.78
2023-01-01T13:47:40.513Z,39.56
2023-01-01T13:49:04.905Z,39.60
2023-01-01T13:50:25.765Z,39.73
2023-01-01T13:52:08.259Z,39.70
2023-01-01T13:53:26.706Z,39.77
2023-01-01T13:54:54.681Z,39.82
2023-01-01T13:56:16.290Z,39.89
2023-01-01T13:57:47.084Z,39.96
2023-01-01T13:59:08.232Z,40.01
2023-01-01T14:00:23.158Z,39.73
2023-01-01T14:02:04.590Z,39.73
2023-01-01T14:03:14.861Z,39.76
2023-01-01T14:04:39.620Z,39.97
2023-01-01T14:05:46.321Z,39.84
2023-01-01T14:06:51.688Z,40.05
2023-01-01T14:07:55.565Z,39.70
2023-01-01T14:09:03.902Z,39.88
2023-01-01T14:10:29.695Z,40.14
2023-01-01T14:11:32.039Z,39.86
2023-01-01T14:12:38.100Z,39.95
2023-01-01T14:13:41.181Z,40.28
2023-01-01T14:14:43.476Z,39.84
2023-01-01T14:15:56.037Z,40.21
2023-01-01T14:17:05.920Z,40.05
2023-01-01T14:18:17.886Z,40.20
2023-01-01T14:19:20.168Z,40.04
2023-01-01T14:20:26.494Z,40.29
2023-01-01T14:21:34.053Z,40.06
2023-01-01T14:22:36.354Z,40.20
2023-01-01T14:23:45.204Z,40.29
2023-01-01T14:24:48.110Z,40.46
2023-01-01T14:25:50.738Z,40.43
2023-01-01T14:26:55.122Z,40.48
2023-01-01T14:27:58.873Z,40.35
2023-01-01T14:29:07.394Z,40.19
2023-01-01T14:30:16.671Z,40.35
2023-01-01T14:31:21.228Z,40.65
2023-01-01T14:32:25.664Z,40.77
2023-01-01T14:33:30.626Z,40.58
2023-01-01T14:34:35.169Z,40.78
2023-01-01T14:35:38.634Z,40.56
2023-01-01T14:36:58.910Z,40.52
2023-01-01T14:38:43.327Z,40.72
2023-01-01T14:39:45.593Z,40.66